Elberta, UT (84626)

12:23 AM MDT on July 24, 2016 (GMT -0600)
West Desert Airpark | | Change Station

Elev 4888 ft 40.24 °N, 112.09 °W | Updated 20 seconds ago

Clear
Clear
69.8 °F
Feels Like 69.8 °F
N
6.9
Wind Variable Wind from WSW
Gusts 11.0 mph

Today
High -- | Low -- °F
--% Chance of Precip.
Yesterday
High -- | Low -- °F
Precip. -- in
Pressure 30.05 in
Visibility 10.0 miles
Clouds Clear
Dew Point 26 °F
Humidity 19%
Rainfall 0.00 in
Snow Depth Not available.
6:19 AM 8:49 PM
Waning Gibbous, 79% visible
METAR KPVU 240615Z AUTO 10003KT 10SM CLR 20/05 A3005 RMK AO1
Pressure 30.05 in
Visibility 10.0 miles
Clouds Clear
Dew Point 26 °F
Humidity 19%
Rainfall 0.00 in
Snow Depth Not available.
6:19 AM 8:49 PM
Waning Gibbous, 79% visible
METAR KPVU 240615Z AUTO 10003KT 10SM CLR 20/05 A3005 RMK AO1

10-Day Weather Forecast

Almanac

Astronomy

Jul. 24, 2016 Rise Set
Actual Time
Civil Twilight
Nautical Twilight
Astronomical Twilight
Moon
Length of Visible Light
Length of Day
Tomorrow will be .
, % of the Moon is Illuminated

Today's Extremes

State Highs State Lows

Community

WunderPhotos

Upload Photos

1,927,038 photos uploaded!

WunderBlog® & News

Nearby

Air Quality

  Air Quality AQ Index Pollutant
Not available.

Snow Depth

Station Depth Elevation

Earthquake Activity

City Distance Mag. Time & Date
Minimum magnitude displayed is 2.5.

Coastal Water Temperatures

Place Temperature

Stations

Nearby Weather Stations

Station Location Temp. Windchill Dew Point Humidity Wind Precip. Elev Updated Type
                   

Watches & Warnings

There are currently no watches in effect.